Time;durP1;ratioP1;P1;durP2;ratioP2;P2;SDS_P1;SDS_P2;PMS_P1;PMS_P2;Temp;Humidity;BMP_temperature;BMP_pressure;BME280_temperature;BME280_humidity;BME280_pressure;Samples;Min_cycle;Max_cycle;Signal;HPM_P1;HPM_P2
2021/11/07 00:02:33;;;;;;;1999.90;999.90;;;;;;;4.34;56.21;101321.38;4963843;28;97191;-71
2021/11/07 00:05:03;;;;;;;1999.90;999.90;;;;;;;4.35;56.15;101305.69;4964727;28;101238;-74
2021/11/07 00:07:41;;;;;;;1999.90;999.90;;;;;;;4.37;56.22;101293.47;4964900;28;98544;-74
2021/11/07 00:10:13;;;;;;;1999.90;999.90;;;;;;;4.37;56.14;101305.75;4966688;28;97510;-75
2021/11/07 00:12:43;;;;;;;1999.90;999.90;;;;;;;4.34;56.20;101289.75;4963471;28;98455;-71
2021/11/07 00:15:14;;;;;;;1999.90;999.90;;;;;;;4.31;56.29;101265.91;4963030;28;98846;-72
2021/11/07 00:17:48;;;;;;;1999.90;999.90;;;;;;;4.28;56.24;101258.72;4981429;28;99408;-74
2021/11/07 00:20:22;;;;;;;1999.90;999.90;;;;;;;4.29;56.19;101241.19;4964783;28;97392;-71
2021/11/07 00:22:56;;;;;;;1999.90;999.90;;;;;;;4.29;56.31;101236.84;4965904;28;97712;-72
2021/11/07 00:25:27;;;;;;;1999.90;999.90;;;;;;;4.62;55.27;101246.53;4962095;28;98034;-74
2021/11/07 00:27:57;;;;;;;1999.90;999.90;;;;;;;4.78;54.31;101242.94;4964561;28;97020;-73
2021/11/07 00:30:36;;;;;;;1999.90;999.90;;;;;;;4.92;54.03;101226.09;4960306;28;98012;-73
2021/11/07 00:33:17;;;;;;;1999.90;999.90;;;;;;;5.05;53.48;101223.28;4961133;28;99213;-72
2021/11/07 00:38:38;;;;;;;1999.90;999.90;;;;;;;5.26;52.85;101218.19;4956505;28;99308;-70
2021/11/07 00:41:17;;;;;;;1999.90;999.90;;;;;;;5.32;52.54;101206.19;4961332;28;97938;-73
2021/11/07 00:43:50;;;;;;;1999.90;999.90;;;;;;;5.38;52.56;101211.75;4961857;28;97301;-73
2021/11/07 00:46:24;;;;;;;1999.90;999.90;;;;;;;5.44;52.45;101200.59;4963830;28;97631;-74
2021/11/07 00:48:56;;;;;;;1999.90;999.90;;;;;;;5.51;52.25;101193.06;4964896;28;96899;-73
2021/11/07 00:51:28;;;;;;;1999.90;999.90;;;;;;;5.57;52.23;101177.53;4962687;28;97556;-72
2021/11/07 00:54:14;;;;;;;1999.90;999.90;;;;;;;5.61;51.95;101171.53;4961879;28;101920;-71
2021/11/07 00:56:45;;;;;;;1999.90;999.90;;;;;;;5.66;51.89;101177.97;4962791;28;97007;-71
2021/11/07 00:59:20;;;;;;;1999.90;999.90;;;;;;;5.68;52.00;101168.38;4945334;28;98138;-74
2021/11/07 01:01:53;;;;;;;1999.90;999.90;;;;;;;5.74;52.22;101157.19;4961272;28;97198;-71
2021/11/07 01:04:21;;;;;;;1999.90;999.90;;;;;;;5.79;51.91;101148.66;4963121;28;97915;-73
2021/11/07 01:06:49;;;;;;;1999.90;999.90;;;;;;;5.85;52.17;101143.63;4962359;28;97967;-71
2021/11/07 01:09:17;;;;;;;1999.90;999.90;;;;;;;5.90;52.05;101130.66;4963684;28;97665;-74
2021/11/07 01:11:45;;;;;;;1999.90;999.90;;;;;;;5.89;51.92;101140.31;4964534;28;97747;-73
2021/11/07 01:14:13;;;;;;;1999.90;999.90;;;;;;;5.88;51.60;101135.88;4974030;28;97689;-70
2021/11/07 01:16:42;;;;;;;1999.90;999.90;;;;;;;5.84;51.45;101131.28;4960647;28;97586;-72
2021/11/07 01:19:11;;;;;;;1999.90;999.90;;;;;;;5.87;51.09;101130.50;4961573;28;97221;-73
2021/11/07 01:21:41;;;;;;;1999.90;999.90;;;;;;;5.88;51.48;101122.66;4976748;28;97080;-74
2021/11/07 01:24:14;;;;;;;1999.90;999.90;;;;;;;5.88;51.45;101117.38;4961950;28;97830;-73
2021/11/07 01:26:43;;;;;;;1999.90;999.90;;;;;;;5.83;51.35;101116.25;4943619;28;98527;-75
2021/11/07 01:29:14;;;;;;;1999.90;999.90;;;;;;;5.83;51.36;101120.66;4958269;28;97617;-74
2021/11/07 01:31:43;;;;;;;1999.90;999.90;;;;;;;5.80;51.38;101110.84;4963138;28;97450;-74
2021/11/07 01:34:18;;;;;;;1999.90;999.90;;;;;;;5.79;51.25;101098.47;4965071;28;97785;-73
2021/11/07 01:36:49;;;;;;;1999.90;999.90;;;;;;;5.80;51.30;101096.72;4964694;28;97657;-74
2021/11/07 01:39:20;;;;;;;1999.90;999.90;;;;;;;5.81;51.23;101101.19;4965950;28;97610;-72
2021/11/07 01:42:05;;;;;;;1999.90;999.90;;;;;;;5.81;51.04;101094.16;4966990;28;96958;-72
2021/11/07 01:44:38;;;;;;;1999.90;999.90;;;;;;;5.79;51.22;101074.72;4966979;28;98996;-72
2021/11/07 01:47:06;;;;;;;1999.90;999.90;;;;;;;5.78;51.23;101067.63;4960506;28;97831;-72
2021/11/07 01:49:41;;;;;;;1999.90;999.90;;;;;;;5.75;51.52;101067.50;4963155;28;97570;-73
2021/11/07 01:52:10;;;;;;;1999.90;999.90;;;;;;;5.70;51.55;101071.66;4964161;28;96895;-72
2021/11/07 01:54:48;;;;;;;1999.90;999.90;;;;;;;5.69;51.54;101054.00;4964390;28;98456;-74
2021/11/07 01:57:17;;;;;;;1999.90;999.90;;;;;;;5.69;51.79;101039.88;4964378;28;98794;-73
2021/11/07 01:59:46;;;;;;;1999.90;999.90;;;;;;;5.67;51.96;101038.91;4966827;28;97151;-74
2021/11/07 02:02:14;;;;;;;1999.90;999.90;;;;;;;5.68;52.03;101027.53;4948515;28;97132;-73
2021/11/07 02:04:44;;;;;;;1999.90;999.90;;;;;;;5.69;52.08;101034.59;4968501;28;98171;-73
2021/11/07 02:07:13;;;;;;;1999.90;999.90;;;;;;;5.69;52.06;101017.03;4967158;28;99251;-72
2021/11/07 02:09:41;;;;;;;1999.90;999.90;;;;;;;5.72;52.24;101021.56;4968767;28;97057;-73
2021/11/07 02:12:11;;;;;;;1999.90;999.90;;;;;;;5.73;52.01;101024.28;4968303;28;96850;-71
2021/11/07 02:14:40;;;;;;;1999.90;999.90;;;;;;;5.71;51.79;101020.66;4954231;28;97476;-73
2021/11/07 02:17:09;;;;;;;1999.90;999.90;;;;;;;5.69;51.90;101003.84;4967492;28;98956;-73
2021/11/07 02:19:38;;;;;;;1999.90;999.90;;;;;;;5.69;52.29;101001.19;4968939;28;97886;-73
2021/11/07 02:22:07;;;;;;;1999.90;999.90;;;;;;;5.71;52.03;101003.91;4967552;28;97217;-75
2021/11/07 02:24:36;;;;;;;1999.90;999.90;;;;;;;5.72;52.06;100997.81;4984260;28;98103;-73
2021/11/07 02:27:05;;;;;;;1999.90;999.90;;;;;;;5.72;52.12;101001.31;4969218;28;98031;-73
2021/11/07 02:29:34;;;;;;;1999.90;999.90;;;;;;;5.72;52.26;100989.88;4968614;28;97569;-71
2021/11/07 02:32:01;;;;;;;1999.90;999.90;;;;;;;5.73;52.24;100986.41;4967636;28;97495;-73
2021/11/07 02:34:30;;;;;;;1999.90;999.90;;;;;;;5.75;52.07;100977.72;4967715;28;98357;-73
2021/11/07 02:36:59;;;;;;;1999.90;999.90;;;;;;;5.77;52.39;100967.22;4968204;28;98065;-73
2021/11/07 02:39:28;;;;;;;1999.90;999.90;;;;;;;5.75;52.38;100964.50;4967543;28;97487;-73
2021/11/07 02:42:00;;;;;;;1999.90;999.90;;;;;;;5.74;51.89;100954.78;4967832;28;96900;-75
2021/11/07 02:44:30;;;;;;;1999.90;999.90;;;;;;;5.73;51.84;100952.06;4969100;28;97777;-73
2021/11/07 02:46:58;;;;;;;1999.90;999.90;;;;;;;5.71;52.19;100943.19;4968589;28;97457;-75
2021/11/07 02:49:26;;;;;;;1999.90;999.90;;;;;;;5.68;52.30;100938.69;4968446;28;96983;-74
2021/11/07 02:51:57;;;;;;;1999.90;999.90;;;;;;;5.65;52.17;100933.25;4969510;28;96822;-75
2021/11/07 02:54:25;;;;;;;1999.90;999.90;;;;;;;5.65;52.04;100916.53;4967359;28;99814;-73
2021/11/07 02:56:57;;;;;;;1999.90;999.90;;;;;;;5.64;52.21;100917.34;4964506;28;97917;-73
2021/11/07 02:59:27;;;;;;;1999.90;999.90;;;;;;;5.61;52.56;100910.19;4967928;28;97154;-75
2021/11/07 03:01:56;;;;;;;1999.90;999.90;;;;;;;5.60;52.59;100908.41;4965461;28;96982;-72
2021/11/07 03:04:26;;;;;;;1999.90;999.90;;;;;;;5.58;52.46;100907.44;4965776;28;99495;-73
2021/11/07 03:06:54;;;;;;;1999.90;999.90;;;;;;;5.57;52.56;100900.38;4967669;28;98814;-74
2021/11/07 03:09:23;;;;;;;1999.90;999.90;;;;;;;5.57;52.53;100896.81;4951540;28;97176;-73
2021/11/07 03:11:53;;;;;;;1999.90;999.90;;;;;;;5.50;52.47;100879.84;4966348;28;98241;-74
2021/11/07 03:14:23;;;;;;;1999.90;999.90;;;;;;;5.49;52.50;100878.00;4964877;28;101358;-73
2021/11/07 03:16:51;;;;;;;1999.90;999.90;;;;;;;5.45;52.68;100875.19;4966729;28;97630;-74
2021/11/07 03:19:20;;;;;;;1999.90;999.90;;;;;;;5.42;52.52;100882.94;4967404;28;96874;-74
2021/11/07 03:21:52;;;;;;;1999.90;999.90;;;;;;;5.38;52.79;100868.72;4966865;28;96958;-73
2021/11/07 03:24:20;;;;;;;1999.90;999.90;;;;;;;5.38;52.70;100870.44;4967824;28;97995;-74
2021/11/07 03:26:48;;;;;;;1999.90;999.90;;;;;;;5.40;53.07;100860.88;4968573;28;97580;-73
2021/11/07 03:29:17;;;;;;;1999.90;999.90;;;;;;;5.39;52.83;100865.28;4967152;28;97763;-72
2021/11/07 03:31:50;;;;;;;1999.90;999.90;;;;;;;5.39;53.14;100867.00;4966777;28;96962;-73
2021/11/07 03:34:26;;;;;;;1999.90;999.90;;;;;;;5.38;53.06;100860.81;4965594;28;98803;-75
2021/11/07 03:36:57;;;;;;;1999.90;999.90;;;;;;;5.40;52.95;100864.41;4965151;28;98199;-73
2021/11/07 03:39:27;;;;;;;1999.90;999.90;;;;;;;5.41;52.94;100866.22;4968623;28;97095;-72
2021/11/07 03:41:58;;;;;;;1999.90;999.90;;;;;;;5.40;53.03;100860.88;4969400;28;96939;-74
2021/11/07 03:44:26;;;;;;;1999.90;999.90;;;;;;;5.41;52.93;100867.97;4967160;28;99830;-73
2021/11/07 03:46:57;;;;;;;1999.90;999.90;;;;;;;5.41;53.42;100863.56;4951733;28;98322;-74
2021/11/07 03:49:25;;;;;;;1999.90;999.90;;;;;;;5.42;53.05;100865.38;4969380;28;97067;-77
2021/11/07 03:51:53;;;;;;;1999.90;999.90;;;;;;;5.44;53.29;100860.16;4951728;28;96858;-73
2021/11/07 03:54:24;;;;;;;1999.90;999.90;;;;;;;5.46;53.01;100858.50;4964000;28;99554;-73
2021/11/07 03:56:52;;;;;;;1999.90;999.90;;;;;;;5.49;53.05;100861.25;4965267;28;99358;-74
2021/11/07 03:59:20;;;;;;;1999.90;999.90;;;;;;;5.11;53.98;100856.97;4968800;28;97407;-72
2021/11/07 04:01:48;;;;;;;1999.90;999.90;;;;;;;5.28;53.83;100860.34;4964943;28;96905;-73
2021/11/07 04:04:17;;;;;;;1999.90;999.90;;;;;;;4.97;54.68;100860.72;4965228;28;98445;-74
2021/11/07 04:06:45;;;;;;;1999.90;999.90;;;;;;;4.85;55.12;100845.22;4968099;28;97437;-73
2021/11/07 04:09:13;;;;;;;1999.90;999.90;;;;;;;4.72;55.33;100849.88;4951575;28;97546;-72
2021/11/07 04:11:43;;;;;;;1999.90;999.90;;;;;;;4.68;55.15;100840.91;4968215;28;96822;-74
2021/11/07 04:14:12;;;;;;;1999.90;999.90;;;;;;;4.65;55.27;100837.25;4968984;28;98465;-73
2021/11/07 04:16:41;;;;;;;1999.90;999.90;;;;;;;4.57;55.90;100836.88;4967245;28;97770;-72
2021/11/07 04:19:09;;;;;;;1999.90;999.90;;;;;;;4.54;55.65;100834.13;4968270;28;97559;-74
2021/11/07 04:21:40;;;;;;;1999.90;999.90;;;;;;;4.52;55.95;100832.28;4970128;28;96907;-72
2021/11/07 04:24:08;;;;;;;1999.90;999.90;;;;;;;4.49;56.09;100829.47;4970239;28;96804;-72
2021/11/07 04:26:36;;;;;;;1999.90;999.90;;;;;;;4.47;56.07;100823.22;4968391;28;99498;-71
2021/11/07 04:29:04;;;;;;;1999.90;999.90;;;;;;;4.47;56.12;100821.50;4969416;28;97143;-72
2021/11/07 04:31:32;;;;;;;1999.90;999.90;;;;;;;4.46;56.31;100826.72;4969715;28;98049;-73
2021/11/07 04:34:00;;;;;;;1999.90;999.90;;;;;;;4.45;56.12;100824.88;4968805;28;97669;-72
2021/11/07 04:36:28;;;;;;;1999.90;999.90;;;;;;;4.42;56.16;100825.66;4964506;28;99321;-72
2021/11/07 04:38:57;;;;;;;1999.90;999.90;;;;;;;4.40;56.42;100834.31;4966124;28;96869;-73
2021/11/07 04:41:26;;;;;;;1999.90;999.90;;;;;;;4.39;56.24;100827.25;4966586;28;96885;-71
2021/11/07 04:43:54;;;;;;;1999.90;999.90;;;;;;;4.36;56.60;100835.00;4969072;28;98318;-72
2021/11/07 04:46:22;;;;;;;1999.90;999.90;;;;;;;4.35;56.54;100838.47;4968557;28;98874;-74
2021/11/07 04:48:50;;;;;;;1999.90;999.90;;;;;;;4.31;56.66;100829.53;4968131;28;96908;-71
2021/11/07 04:51:18;;;;;;;1999.90;999.90;;;;;;;4.29;56.82;100811.84;4968683;28;96873;-73
2021/11/07 04:53:46;;;;;;;1999.90;999.90;;;;;;;4.33;56.69;100816.44;4966382;28;98875;-73
2021/11/07 04:56:15;;;;;;;1999.90;999.90;;;;;;;4.32;56.75;100812.00;4964783;28;98887;-73
2021/11/07 04:58:43;;;;;;;1999.90;999.90;;;;;;;4.32;56.51;100814.63;4965079;28;97180;-72
2021/11/07 05:01:11;;;;;;;1999.90;999.90;;;;;;;4.61;56.24;100799.31;4960300;28;96882;-72
2021/11/07 05:03:39;;;;;;;1999.90;999.90;;;;;;;4.76;56.68;100801.72;4987372;22;99007;-71
2021/11/07 05:06:07;;;;;;;1999.90;999.90;;;;;;;4.56;56.97;100792.94;4975425;28;98320;-71
2021/11/07 05:08:35;;;;;;;1999.90;999.90;;;;;;;4.81;56.41;100787.94;4980397;28;97290;-71
2021/11/07 05:11:03;;;;;;;1999.90;999.90;;;;;;;4.59;57.24;100802.72;4986469;28;98562;-72
2021/11/07 05:13:32;;;;;;;1999.90;999.90;;;;;;;4.53;57.28;100802.44;4984176;28;100731;-71
2021/11/07 05:16:00;;;;;;;1999.90;999.90;;;;;;;4.50;57.07;100794.41;4987350;28;97634;-71
2021/11/07 05:18:28;;;;;;;1999.90;999.90;;;;;;;4.45;57.26;100791.56;4988110;28;98029;-71
2021/11/07 05:20:55;;;;;;;1999.90;999.90;;;;;;;4.43;57.25;100787.94;4968466;28;97189;-71
2021/11/07 05:23:23;;;;;;;1999.90;999.90;;;;;;;4.42;57.29;100782.59;4987207;28;98110;-71
2021/11/07 05:25:52;;;;;;;1999.90;999.90;;;;;;;4.41;57.17;100783.47;4989938;28;97658;-71
2021/11/07 05:28:20;;;;;;;1999.90;999.90;;;;;;;4.69;56.58;100763.66;4984989;28;97956;-71
2021/11/07 05:30:50;;;;;;;1999.90;999.90;;;;;;;4.86;56.12;100770.59;4986394;28;98292;-71
2021/11/07 05:33:18;;;;;;;1999.90;999.90;;;;;;;4.99;56.07;100766.75;4984099;28;99869;-71
2021/11/07 05:35:46;;;;;;;1999.90;999.90;;;;;;;5.11;55.90;100768.22;4984710;28;97551;-71
2021/11/07 05:38:13;;;;;;;1999.90;999.90;;;;;;;5.20;55.60;100776.50;4986413;28;97029;-70
2021/11/07 05:40:41;;;;;;;1999.90;999.90;;;;;;;4.83;56.63;100759.91;4990227;28;96799;-71
2021/11/07 05:43:09;;;;;;;1999.90;999.90;;;;;;;5.08;55.88;100761.91;4987814;28;98110;-70
2021/11/07 05:45:37;;;;;;;1999.90;999.90;;;;;;;5.22;55.29;100760.75;4988382;28;98810;-71
2021/11/07 05:48:06;;;;;;;1999.90;999.90;;;;;;;4.85;56.37;100755.59;4972977;28;97010;-71
2021/11/07 05:50:35;;;;;;;1999.90;999.90;;;;;;;4.75;56.64;100747.22;5006852;28;97942;-71
2021/11/07 05:53:03;;;;;;;1999.90;999.90;;;;;;;4.68;56.73;100747.78;4989365;28;99238;-71
2021/11/07 05:55:31;;;;;;;1999.90;999.90;;;;;;;4.66;56.68;100749.47;4989932;28;98792;-71
2021/11/07 05:57:59;;;;;;;1999.90;999.90;;;;;;;4.63;56.77;100741.41;4990035;28;96762;-71
2021/11/07 06:00:28;;;;;;;1999.90;999.90;;;;;;;4.59;56.88;100739.50;4987493;28;99205;-71
2021/11/07 06:02:56;;;;;;;1999.90;999.90;;;;;;;4.59;56.99;100747.41;4988405;28;97712;-71
2021/11/07 06:05:25;;;;;;;1999.90;999.90;;;;;;;4.58;57.00;100740.31;4987844;28;100387;-72
2021/11/07 06:07:53;;;;;;;1999.90;999.90;;;;;;;4.56;57.05;100757.78;4988912;28;97655;-71
2021/11/07 06:10:21;;;;;;;1999.90;999.90;;;;;;;4.56;57.03;100763.03;4990800;28;96712;-71
2021/11/07 06:12:49;;;;;;;1999.90;999.90;;;;;;;4.52;57.01;100758.50;4974372;28;98767;-71
2021/11/07 06:15:16;;;;;;;1999.90;999.90;;;;;;;4.51;57.02;100751.41;4990783;28;98762;-71
2021/11/07 06:17:44;;;;;;;1999.90;999.90;;;;;;;4.48;57.12;100756.56;4969294;28;97175;-71
2021/11/07 06:20:12;;;;;;;1999.90;999.90;;;;;;;4.46;57.23;100755.56;4985639;28;98200;-71
2021/11/07 06:22:41;;;;;;;1999.90;999.90;;;;;;;4.44;57.22;100755.50;4969606;28;99296;-71
2021/11/07 06:25:09;;;;;;;1999.90;999.90;;;;;;;4.43;57.22;100755.41;4988345;28;97049;-72
2021/11/07 06:27:37;;;;;;;1999.90;999.90;;;;;;;4.43;57.19;100753.69;4989569;28;96882;-72
2021/11/07 06:30:08;;;;;;;1999.90;999.90;;;;;;;4.41;57.18;100746.56;4987498;28;97123;-70
2021/11/07 06:32:36;;;;;;;1999.90;999.90;;;;;;;4.41;57.26;100754.47;4988450;28;98079;-72
2021/11/07 06:35:05;;;;;;;1999.90;999.90;;;;;;;4.41;57.21;100751.84;4989485;28;98338;-71
2021/11/07 06:37:33;;;;;;;1999.90;999.90;;;;;;;4.39;57.48;100758.78;4988865;28;97492;-71
2021/11/07 06:40:02;;;;;;;1999.90;999.90;;;;;;;4.38;57.31;100757.84;4988917;28;97715;-70
2021/11/07 06:42:30;;;;;;;1999.90;999.90;;;;;;;4.38;57.31;100763.13;4986759;28;99416;-73
2021/11/07 06:44:57;;;;;;;1999.90;999.90;;;;;;;4.39;57.20;100749.13;4989987;28;98099;-71
2021/11/07 06:47:25;;;;;;;1999.90;999.90;;;;;;;4.37;57.32;100750.78;4990606;28;97118;-71
2021/11/07 06:49:53;;;;;;;1999.90;999.90;;;;;;;4.36;57.40;100758.59;4988605;28;96863;-71
2021/11/07 06:52:21;;;;;;;1999.90;999.90;;;;;;;4.35;57.40;100764.72;4986421;28;99395;-71
2021/11/07 06:54:49;;;;;;;1999.90;999.90;;;;;;;4.34;57.53;100760.28;4988720;28;96789;-70
2021/11/07 06:57:18;;;;;;;1999.90;999.90;;;;;;;4.33;57.53;100761.13;4987338;28;96824;-70
2021/11/07 06:59:47;;;;;;;1999.90;999.90;;;;;;;4.30;57.72;100750.44;4989213;28;97797;-70
2021/11/07 07:02:15;;;;;;;1999.90;999.90;;;;;;;4.28;57.77;100752.97;4984105;28;99253;-71
2021/11/07 07:04:43;;;;;;;1999.90;999.90;;;;;;;4.58;57.16;100735.94;4985294;28;98974;-71
2021/11/07 07:07:12;;;;;;;1999.90;999.90;;;;;;;4.42;57.73;100753.63;4987502;28;97958;-72
2021/11/07 07:09:45;;;;;;;1999.90;999.90;;;;;;;4.34;57.93;100755.00;4989642;28;96909;-69
2021/11/07 07:12:19;;;;;;;1999.90;999.90;;;;;;;4.28;59.53;100746.84;4985115;28;99298;-70
2021/11/07 07:14:55;;;;;;;1999.90;999.90;;;;;;;4.59;57.73;100752.66;4986425;28;99008;-70
2021/11/07 07:17:29;;;;;;;1999.90;999.90;;;;;;;4.38;58.42;100747.31;4985777;28;97827;-71
2021/11/07 07:20:11;;;;;;;1999.90;999.90;;;;;;;4.30;58.60;100751.31;4986267;28;97704;-72
2021/11/07 07:28:37;;;;;;;1999.90;999.90;;;;;;;4.50;58.13;100749.63;4998366;28;97936;-70
2021/11/07 07:34:02;;;;;;;1999.90;999.90;;;;;;;4.80;58.05;100757.13;4966939;28;98905;-71
2021/11/07 07:36:30;;;;;;;1999.90;999.90;;;;;;;4.89;57.95;100749.63;4983211;28;99529;-71
2021/11/07 07:38:58;;;;;;;1999.90;999.90;;;;;;;4.97;57.77;100750.84;5000841;28;98638;-71
2021/11/07 07:41:27;;;;;;;1999.90;999.90;;;;;;;5.05;57.73;100759.13;4983549;28;97991;-71
2021/11/07 07:44:06;;;;;;;1999.90;999.90;;;;;;;5.11;57.75;100756.75;4980290;28;97092;-71
2021/11/07 07:46:36;;;;;;;1999.90;999.90;;;;;;;5.15;57.85;100761.34;4981712;28;99251;-70
2021/11/07 07:49:04;;;;;;;1999.90;999.90;;;;;;;4.78;58.81;100757.91;4984859;28;97744;-71
2021/11/07 07:51:32;;;;;;;1999.90;999.90;;;;;;;4.63;58.99;100762.47;4984185;28;97374;-71
2021/11/07 07:54:02;;;;;;;1999.90;999.90;;;;;;;4.51;59.24;100770.75;4985697;28;97669;-71
2021/11/07 07:56:30;;;;;;;1999.90;999.90;;;;;;;4.44;59.56;100768.69;4982041;28;97510;-70
2021/11/07 07:58:58;;;;;;;1999.90;999.90;;;;;;;4.36;59.81;100764.78;4985356;28;97335;-72
2021/11/07 08:01:28;;;;;;;1999.90;999.90;;;;;;;4.29;59.96;100761.78;4981294;28;98535;-71
2021/11/07 08:03:57;;;;;;;1999.90;999.90;;;;;;;4.24;60.11;100758.97;4982763;28;100868;-71
2021/11/07 08:06:25;;;;;;;1999.90;999.90;;;;;;;4.19;60.18;100756.09;4982405;28;100434;-71
2021/11/07 08:08:53;;;;;;;1999.90;999.90;;;;;;;4.15;60.18;100762.06;4985752;28;98073;-71
2021/11/07 08:11:22;;;;;;;1999.90;999.90;;;;;;;4.09;60.38;100763.53;4985843;28;97772;-72
2021/11/07 08:13:52;;;;;;;1999.90;999.90;;;;;;;4.04;60.44;100759.78;4987613;28;97577;-71
2021/11/07 08:16:22;;;;;;;1999.90;999.90;;;;;;;4.03;60.53;100765.84;4983255;28;99208;-70
2021/11/07 08:18:50;;;;;;;1999.90;999.90;;;;;;;4.04;60.37;100768.56;4983724;28;97068;-69
2021/11/07 08:21:20;;;;;;;1999.90;999.90;;;;;;;4.35;59.51;100756.81;4982265;28;96909;-71
2021/11/07 08:23:49;;;;;;;1999.90;999.90;;;;;;;4.16;60.33;100750.72;4988234;28;97745;-70
2021/11/07 08:26:18;;;;;;;1999.90;999.90;;;;;;;4.08;60.61;100738.91;4984553;28;99225;-69
2021/11/07 08:28:46;;;;;;;1999.90;999.90;;;;;;;4.07;60.46;100739.75;4987535;28;97098;-69
2021/11/07 08:31:22;;;;;;;1999.90;999.90;;;;;;;4.40;59.89;100747.38;4986098;28;97059;-71
2021/11/07 08:33:51;;;;;;;1999.90;999.90;;;;;;;4.56;59.78;100729.69;4984088;28;99550;-71
2021/11/07 08:36:23;;;;;;;1999.90;999.90;;;;;;;4.69;59.71;100728.50;4981488;28;97616;-70
2021/11/07 08:38:56;;;;;;;1999.90;999.90;;;;;;;4.37;60.90;100728.81;4983091;28;96783;-70
2021/11/07 08:41:24;;;;;;;1999.90;999.90;;;;;;;4.30;60.95;100737.28;4983348;28;97630;-72
2021/11/07 09:01:14;;;;;;;1999.90;999.90;;;;;;;4.19;61.42;100736.75;4982812;28;97515;-71
2021/11/07 09:03:46;;;;;;;1999.90;999.90;;;;;;;4.15;61.68;100725.19;4984388;28;96937;-70
2021/11/07 09:09:11;;;;;;;1999.90;999.90;;;;;;;4.13;61.49;100715.44;4951177;28;97903;-71
2021/11/07 09:11:47;;;;;;;1999.90;999.90;;;;;;;4.15;61.35;100725.19;4983596;28;97335;-71
2021/11/07 09:14:16;;;;;;;1999.90;999.90;;;;;;;4.17;61.24;100734.06;4984596;28;97287;-69
2021/11/07 09:16:44;;;;;;;1999.90;999.90;;;;;;;4.50;61.00;100731.19;4981127;28;98516;-69
2021/11/07 09:19:15;;;;;;;1999.90;999.90;;;;;;;4.65;61.06;100721.28;4980704;28;98199;-70
2021/11/07 09:21:45;;;;;;;1999.90;999.90;;;;;;;4.82;61.08;100722.94;4983832;28;98068;-72
2021/11/07 09:24:24;;;;;;;1999.90;999.90;;;;;;;4.95;60.92;100722.63;4984820;28;96875;-70
2021/11/07 09:26:54;;;;;;;1999.90;999.90;;;;;;;5.09;60.55;100718.84;5000992;28;99137;-72
2021/11/07 09:29:26;;;;;;;1999.90;999.90;;;;;;;5.19;60.01;100713.16;4980743;28;98617;-72
2021/11/07 09:32:08;;;;;;;1999.90;999.90;;;;;;;5.27;59.95;100727.53;4985484;28;97115;-72
2021/11/07 09:34:43;;;;;;;1999.90;999.90;;;;;;;5.34;59.41;100721.66;4984515;28;96768;-73
2021/11/07 09:37:16;;;;;;;1999.90;999.90;;;;;;;5.39;58.81;100714.88;4984518;28;97638;-71
2021/11/07 09:39:51;;;;;;;1999.90;999.90;;;;;;;5.44;58.88;100715.94;4985387;28;98564;-72
2021/11/07 09:45:20;;;;;;;1999.90;999.90;;;;;;;5.46;58.31;100732.75;4946197;28;96901;-72
2021/11/07 09:47:52;;;;;;;1999.90;999.90;;;;;;;5.47;58.17;100731.91;4982238;28;99027;-72
2021/11/07 09:50:20;;;;;;;1999.90;999.90;;;;;;;5.49;57.63;100722.31;4980601;28;99020;-72
2021/11/07 09:52:52;;;;;;;1999.90;999.90;;;;;;;5.50;57.85;100716.22;4981823;28;96988;-73
2021/11/07 09:55:24;;;;;;;1999.90;999.90;;;;;;;5.52;57.59;100719.78;4983950;28;98537;-72
2021/11/07 09:57:54;;;;;;;1999.90;999.90;;;;;;;5.56;57.00;100716.44;4982658;28;97976;-71
2021/11/07 10:00:24;;;;;;;1999.90;999.90;;;;;;;5.59;56.99;100707.75;4981768;28;100375;-71
2021/11/07 10:02:53;;;;;;;1999.90;999.90;;;;;;;5.59;56.80;100715.66;4983872;28;98420;-71
2021/11/07 10:05:20;;;;;;;1999.90;999.90;;;;;;;5.58;56.54;100713.84;4985771;28;97334;-71
2021/11/07 10:07:56;;;;;;;1999.90;999.90;;;;;;;5.58;56.47;100714.75;5000491;28;101389;-71
2021/11/07 10:10:29;;;;;;;1999.90;999.90;;;;;;;5.58;56.21;100712.13;4982385;28;97917;-71
2021/11/07 10:12:58;;;;;;;1999.90;999.90;;;;;;;5.60;56.39;100706.88;4983893;28;96792;-71
2021/11/07 10:15:31;;;;;;;1999.90;999.90;;;;;;;5.57;56.14;100718.25;4982172;28;97153;-71
2021/11/07 10:18:04;;;;;;;1999.90;999.90;;;;;;;5.60;56.16;100696.34;4982875;28;97800;-71
2021/11/07 10:20:37;;;;;;;1999.90;999.90;;;;;;;5.63;56.18;100697.34;4982743;28;98176;-71
2021/11/07 10:23:10;;;;;;;1999.90;999.90;;;;;;;5.65;56.05;100700.09;4984651;28;97265;-71
2021/11/07 10:25:45;;;;;;;1999.90;999.90;;;;;;;5.68;56.27;100709.03;4984612;28;98158;-71
2021/11/07 10:28:18;;;;;;;1999.90;999.90;;;;;;;5.71;55.79;100705.56;4985816;28;98015;-70
2021/11/07 10:30:49;;;;;;;1999.90;999.90;;;;;;;5.73;56.22;100691.59;4985499;28;99683;-71
2021/11/07 10:39:31;;;;;;;1999.90;999.90;;;;;;;5.75;55.83;100711.06;4986508;28;98732;-70
2021/11/07 10:53:12;;;;;;;1999.90;999.90;;;;;;;5.63;57.03;100692.06;4976920;28;97750;-71
2021/11/07 10:55:42;;;;;;;1999.90;999.90;;;;;;;5.63;57.27;100699.13;4981717;28;97411;-71
2021/11/07 10:58:12;;;;;;;1999.90;999.90;;;;;;;5.61;57.14;100688.47;4985033;28;96803;-71
2021/11/07 11:00:42;;;;;;;1999.90;999.90;;;;;;;5.59;57.26;100684.91;4986626;28;97603;-70
2021/11/07 11:03:12;;;;;;;1999.90;999.90;;;;;;;5.60;57.09;100686.69;5024636;22;98860;-79
2021/11/07 11:05:47;;;;;;;1999.90;999.90;;;;;;;5.62;57.28;100674.44;4961513;28;98172;-80
2021/11/07 11:08:17;;;;;;;1999.90;999.90;;;;;;;5.64;57.23;100666.59;4976440;28;98193;-79
2021/11/07 11:10:54;;;;;;;1999.90;999.90;;;;;;;5.65;57.02;100661.34;4960500;28;100048;-79
2021/11/07 11:13:32;;;;;;;1999.90;999.90;;;;;;;5.66;57.14;100654.34;4963790;28;98042;-78
2021/11/07 11:16:20;;;;;;;1999.90;999.90;;;;;;;5.66;56.83;100649.97;4979468;28;96955;-77
2021/11/07 11:19:24;;;;;;;1999.90;999.90;;;;;;;5.68;56.75;100648.31;4981715;28;97350;-77
2021/11/07 11:33:15;;;;;;;1999.90;999.90;;;;;;;5.52;57.83;100671.41;4962193;28;98122;-79
2021/11/07 11:35:47;;;;;;;1999.90;999.90;;;;;;;5.74;56.87;100669.63;4982288;28;98803;-79
2021/11/07 11:38:19;;;;;;;1999.90;999.90;;;;;;;5.82;56.77;100664.66;4981962;28;98640;-78
2021/11/07 11:40:55;;;;;;;1999.90;999.90;;;;;;;5.90;56.24;100650.00;4981072;28;97301;-80
2021/11/07 11:43:34;;;;;;;1999.90;999.90;;;;;;;5.98;55.66;100649.44;4982125;28;98083;-77
2021/11/07 11:46:14;;;;;;;1999.90;999.90;;;;;;;6.02;55.04;100638.16;4982535;28;99415;-77
2021/11/07 11:49:15;;;;;;;1999.90;999.90;;;;;;;6.03;54.52;100650.50;4979230;28;96869;-80
2021/11/07 11:54:49;;;;;;;1999.90;999.90;;;;;;;6.06;54.40;100648.00;4964941;28;97831;-77
2021/11/07 11:57:41;;;;;;;1999.90;999.90;;;;;;;5.66;55.31;100649.97;4984013;28;98339;-79
2021/11/07 12:00:36;;;;;;;1999.90;999.90;;;;;;;5.46;55.33;100655.31;4964876;28;96943;-77
2021/11/07 12:03:12;;;;;;;1999.90;999.90;;;;;;;5.37;56.33;100655.84;4980069;28;97193;-75
2021/11/07 12:05:45;;;;;;;1999.90;999.90;;;;;;;5.63;55.26;100660.41;4968701;28;99134;-74
2021/11/07 12:08:19;;;;;;;1999.90;999.90;;;;;;;5.42;55.64;100650.75;4964866;28;99332;-77
2021/11/07 12:10:54;;;;;;;1999.90;999.90;;;;;;;5.37;56.36;100655.84;4981535;28;97980;-75
2021/11/07 12:13:37;;;;;;;1999.90;999.90;;;;;;;5.60;54.93;100643.53;4978038;28;97932;-80
2021/11/07 12:16:11;;;;;;;1999.90;999.90;;;;;;;5.41;55.78;100641.91;4977074;28;98845;-77
2021/11/07 12:19:05;;;;;;;1999.90;999.90;;;;;;;5.27;54.94;100648.41;4979473;28;98928;-76